sensor_id;sensor_type;location;lat;lon;timestamp;temperature;humidity
41694;DHT22;27377;50.666;9.150;2023-05-10T00:00:50;14.90;99.90
41694;DHT22;27377;50.666;9.150;2023-05-10T00:03:16;14.90;99.90
41694;DHT22;27377;50.666;9.150;2023-05-10T00:05:42;14.90;99.90
41694;DHT22;27377;50.666;9.150;2023-05-10T00:08:08;14.90;99.90
41694;DHT22;27377;50.666;9.150;2023-05-10T00:10:33;14.90;99.90
41694;DHT22;27377;50.666;9.150;2023-05-10T00:12:59;14.90;99.90
41694;DHT22;27377;50.666;9.150;2023-05-10T00:15:24;14.80;99.90
41694;DHT22;27377;50.666;9.150;2023-05-10T00:17:50;14.80;99.90
41694;DHT22;27377;50.666;9.150;2023-05-10T00:20:15;14.90;99.90
41694;DHT22;27377;50.666;9.150;2023-05-10T00:22:41;14.90;99.90
41694;DHT22;27377;50.666;9.150;2023-05-10T00:25:07;14.90;99.90
41694;DHT22;27377;50.666;9.150;2023-05-10T00:27:33;14.90;99.90
41694;DHT22;27377;50.666;9.150;2023-05-10T00:29:58;14.90;99.90
41694;DHT22;27377;50.666;9.150;2023-05-10T00:32:24;14.90;99.90
41694;DHT22;27377;50.666;9.150;2023-05-10T00:34:49;14.90;99.90
41694;DHT22;27377;50.666;9.150;2023-05-10T00:37:15;14.90;99.90
41694;DHT22;27377;50.666;9.150;2023-05-10T00:39:41;14.90;99.90
41694;DHT22;27377;50.666;9.150;2023-05-10T00:42:06;14.90;99.90
41694;DHT22;27377;50.666;9.150;2023-05-10T00:44:32;14.90;99.90
41694;DHT22;27377;50.666;9.150;2023-05-10T00:46:58;14.90;99.90
41694;DHT22;27377;50.666;9.150;2023-05-10T00:49:24;14.90;99.90
41694;DHT22;27377;50.666;9.150;2023-05-10T00:51:50;14.90;99.90
41694;DHT22;27377;50.666;9.150;2023-05-10T00:54:16;14.80;99.90
41694;DHT22;27377;50.666;9.150;2023-05-10T00:56:42;14.80;99.90
41694;DHT22;27377;50.666;9.150;2023-05-10T00:59:14;14.90;99.90
41694;DHT22;27377;50.666;9.150;2023-05-10T01:01:39;14.80;99.90
41694;DHT22;27377;50.666;9.150;2023-05-10T01:04:05;14.90;99.90
41694;DHT22;27377;50.666;9.150;2023-05-10T01:06:31;14.90;99.90
41694;DHT22;27377;50.666;9.150;2023-05-10T01:08:57;14.80;99.90
41694;DHT22;27377;50.666;9.150;2023-05-10T01:11:23;14.80;99.90
41694;DHT22;27377;50.666;9.150;2023-05-10T01:13:54;14.80;99.90
41694;DHT22;27377;50.666;9.150;2023-05-10T01:16:21;14.70;99.90
41694;DHT22;27377;50.666;9.150;2023-05-10T01:18:46;14.70;99.90
41694;DHT22;27377;50.666;9.150;2023-05-10T01:21:23;14.70;99.90
41694;DHT22;27377;50.666;9.150;2023-05-10T01:24:04;14.70;99.90
41694;DHT22;27377;50.666;9.150;2023-05-10T01:32:17;14.60;99.90
41694;DHT22;27377;50.666;9.150;2023-05-10T01:34:54;14.60;99.90
41694;DHT22;27377;50.666;9.150;2023-05-10T01:37:25;14.50;99.90
41694;DHT22;27377;50.666;9.150;2023-05-10T01:40:00;14.50;99.90
41694;DHT22;27377;50.666;9.150;2023-05-10T01:42:35;14.50;99.90
41694;DHT22;27377;50.666;9.150;2023-05-10T01:45:07;14.40;99.90
41694;DHT22;27377;50.666;9.150;2023-05-10T01:47:46;14.40;99.90
41694;DHT22;27377;50.666;9.150;2023-05-10T01:50:18;14.40;99.90
41694;DHT22;27377;50.666;9.150;2023-05-10T01:52:49;14.40;99.90
41694;DHT22;27377;50.666;9.150;2023-05-10T01:55:16;14.30;99.90
41694;DHT22;27377;50.666;9.150;2023-05-10T01:57:44;14.30;99.90
41694;DHT22;27377;50.666;9.150;2023-05-10T02:00:12;14.30;99.90
41694;DHT22;27377;50.666;9.150;2023-05-10T02:02:42;14.30;99.90
41694;DHT22;27377;50.666;9.150;2023-05-10T02:05:12;14.30;99.90
41694;DHT22;27377;50.666;9.150;2023-05-10T02:07:38;14.20;99.90
41694;DHT22;27377;50.666;9.150;2023-05-10T02:10:05;14.20;99.90
41694;DHT22;27377;50.666;9.150;2023-05-10T02:12:32;14.20;99.90
41694;DHT22;27377;50.666;9.150;2023-05-10T02:15:02;14.20;99.90
41694;DHT22;27377;50.666;9.150;2023-05-10T02:17:30;14.20;99.90
41694;DHT22;27377;50.666;9.150;2023-05-10T02:19:58;14.20;99.90
41694;DHT22;27377;50.666;9.150;2023-05-10T02:22:26;14.10;99.90
41694;DHT22;27377;50.666;9.150;2023-05-10T02:24:54;14.10;99.90
41694;DHT22;27377;50.666;9.150;2023-05-10T02:27:20;14.10;99.90
41694;DHT22;27377;50.666;9.150;2023-05-10T02:29:48;14.10;99.90
41694;DHT22;27377;50.666;9.150;2023-05-10T02:32:15;14.00;99.90
41694;DHT22;27377;50.666;9.150;2023-05-10T02:34:42;14.00;99.90
41694;DHT22;27377;50.666;9.150;2023-05-10T02:37:08;14.00;99.90
41694;DHT22;27377;50.666;9.150;2023-05-10T02:39:34;14.00;99.90
41694;DHT22;27377;50.666;9.150;2023-05-10T02:42:00;14.00;99.90
41694;DHT22;27377;50.666;9.150;2023-05-10T02:44:28;14.00;99.90
41694;DHT22;27377;50.666;9.150;2023-05-10T02:46:56;14.00;99.90
41694;DHT22;27377;50.666;9.150;2023-05-10T02:49:22;14.00;99.90
41694;DHT22;27377;50.666;9.150;2023-05-10T02:51:51;13.90;99.90
41694;DHT22;27377;50.666;9.150;2023-05-10T02:54:24;13.90;99.90
41694;DHT22;27377;50.666;9.150;2023-05-10T02:56:53;13.90;99.90
41694;DHT22;27377;50.666;9.150;2023-05-10T02:59:22;13.90;99.90
41694;DHT22;27377;50.666;9.150;2023-05-10T03:01:47;13.90;99.90
41694;DHT22;27377;50.666;9.150;2023-05-10T03:04:13;13.80;99.90
41694;DHT22;27377;50.666;9.150;2023-05-10T03:06:39;13.80;99.90
41694;DHT22;27377;50.666;9.150;2023-05-10T03:09:04;13.80;99.90
41694;DHT22;27377;50.666;9.150;2023-05-10T03:11:43;13.80;99.90
41694;DHT22;27377;50.666;9.150;2023-05-10T03:14:34;13.80;99.90
41694;DHT22;27377;50.666;9.150;2023-05-10T03:22:46;13.80;99.90
41694;DHT22;27377;50.666;9.150;2023-05-10T03:25:14;13.80;99.90
41694;DHT22;27377;50.666;9.150;2023-05-10T03:27:43;13.80;99.90
41694;DHT22;27377;50.666;9.150;2023-05-10T03:30:11;13.80;99.90
41694;DHT22;27377;50.666;9.150;2023-05-10T03:32:37;13.80;99.90
41694;DHT22;27377;50.666;9.150;2023-05-10T03:35:10;13.70;99.90
41694;DHT22;27377;50.666;9.150;2023-05-10T03:37:37;13.70;99.90
41694;DHT22;27377;50.666;9.150;2023-05-10T03:40:03;13.70;99.90
41694;DHT22;27377;50.666;9.150;2023-05-10T03:42:29;13.70;99.90
41694;DHT22;27377;50.666;9.150;2023-05-10T03:44:55;13.70;99.90
41694;DHT22;27377;50.666;9.150;2023-05-10T03:47:20;13.70;99.90
41694;DHT22;27377;50.666;9.150;2023-05-10T03:49:46;13.70;99.90
41694;DHT22;27377;50.666;9.150;2023-05-10T03:52:11;13.70;99.90
41694;DHT22;27377;50.666;9.150;2023-05-10T03:54:37;13.70;99.90
41694;DHT22;27377;50.666;9.150;2023-05-10T03:57:03;13.70;99.90
41694;DHT22;27377;50.666;9.150;2023-05-10T03:59:29;13.70;99.90
41694;DHT22;27377;50.666;9.150;2023-05-10T04:01:55;13.70;99.90
41694;DHT22;27377;50.666;9.150;2023-05-10T04:04:20;13.60;99.90
41694;DHT22;27377;50.666;9.150;2023-05-10T04:06:47;13.60;99.90
41694;DHT22;27377;50.666;9.150;2023-05-10T04:09:12;13.60;99.90
41694;DHT22;27377;50.666;9.150;2023-05-10T04:11:38;13.60;99.90
41694;DHT22;27377;50.666;9.150;2023-05-10T04:14:03;13.60;99.90
41694;DHT22;27377;50.666;9.150;2023-05-10T04:16:29;13.70;99.90
41694;DHT22;27377;50.666;9.150;2023-05-10T04:18:54;13.70;99.90
41694;DHT22;27377;50.666;9.150;2023-05-10T04:21:20;13.60;99.90
41694;DHT22;27377;50.666;9.150;2023-05-10T04:23:46;13.60;99.90
41694;DHT22;27377;50.666;9.150;2023-05-10T04:26:11;13.60;99.90
41694;DHT22;27377;50.666;9.150;2023-05-10T04:28:37;13.60;99.90
41694;DHT22;27377;50.666;9.150;2023-05-10T04:31:08;13.60;99.90
41694;DHT22;27377;50.666;9.150;2023-05-10T04:33:33;13.60;99.90
41694;DHT22;27377;50.666;9.150;2023-05-10T04:36:00;13.60;99.90
41694;DHT22;27377;50.666;9.150;2023-05-10T04:38:26;13.60;99.90
41694;DHT22;27377;50.666;9.150;2023-05-10T04:40:53;13.60;99.90
41694;DHT22;27377;50.666;9.150;2023-05-10T04:43:19;13.60;99.90
41694;DHT22;27377;50.666;9.150;2023-05-10T04:45:45;13.60;99.90
41694;DHT22;27377;50.666;9.150;2023-05-10T04:48:11;13.60;99.90
41694;DHT22;27377;50.666;9.150;2023-05-10T04:50:36;13.60;99.90
41694;DHT22;27377;50.666;9.150;2023-05-10T04:53:02;13.60;99.90
41694;DHT22;27377;50.666;9.150;2023-05-10T04:55:27;13.60;99.90
41694;DHT22;27377;50.666;9.150;2023-05-10T04:57:53;13.60;99.90
41694;DHT22;27377;50.666;9.150;2023-05-10T05:00:22;13.60;99.90
41694;DHT22;27377;50.666;9.150;2023-05-10T05:02:47;13.60;99.90
41694;DHT22;27377;50.666;9.150;2023-05-10T05:05:13;13.60;99.90
41694;DHT22;27377;50.666;9.150;2023-05-10T05:07:38;13.60;99.90
41694;DHT22;27377;50.666;9.150;2023-05-10T05:10:06;13.50;99.90
41694;DHT22;27377;50.666;9.150;2023-05-10T05:12:31;13.50;99.90
41694;DHT22;27377;50.666;9.150;2023-05-10T05:14:57;13.50;99.90
41694;DHT22;27377;50.666;9.150;2023-05-10T05:17:22;13.50;99.90
41694;DHT22;27377;50.666;9.150;2023-05-10T05:19:48;13.50;99.90
41694;DHT22;27377;50.666;9.150;2023-05-10T05:22:13;13.50;99.90
41694;DHT22;27377;50.666;9.150;2023-05-10T05:24:39;13.50;99.90
41694;DHT22;27377;50.666;9.150;2023-05-10T05:27:05;13.60;99.90
41694;DHT22;27377;50.666;9.150;2023-05-10T05:29:31;13.50;99.90
41694;DHT22;27377;50.666;9.150;2023-05-10T05:32:00;13.50;99.90
41694;DHT22;27377;50.666;9.150;2023-05-10T05:34:26;13.50;99.90
41694;DHT22;27377;50.666;9.150;2023-05-10T05:36:52;13.50;99.90
41694;DHT22;27377;50.666;9.150;2023-05-10T05:39:18;13.60;99.90
41694;DHT22;27377;50.666;9.150;2023-05-10T05:41:44;13.50;99.90
41694;DHT22;27377;50.666;9.150;2023-05-10T05:44:09;13.50;99.90
41694;DHT22;27377;50.666;9.150;2023-05-10T05:46:35;13.60;99.90
41694;DHT22;27377;50.666;9.150;2023-05-10T05:49:00;13.60;99.90
41694;DHT22;27377;50.666;9.150;2023-05-10T05:51:29;13.60;99.90
41694;DHT22;27377;50.666;9.150;2023-05-10T05:53:56;13.60;99.90
41694;DHT22;27377;50.666;9.150;2023-05-10T05:56:22;13.60;99.90
41694;DHT22;27377;50.666;9.150;2023-05-10T05:58:50;13.60;99.90
41694;DHT22;27377;50.666;9.150;2023-05-10T06:01:16;13.60;99.90
41694;DHT22;27377;50.666;9.150;2023-05-10T06:03:42;13.60;99.90
41694;DHT22;27377;50.666;9.150;2023-05-10T06:06:10;13.60;99.90
41694;DHT22;27377;50.666;9.150;2023-05-10T06:08:36;13.60;99.90
41694;DHT22;27377;50.666;9.150;2023-05-10T06:11:01;13.60;99.90
41694;DHT22;27377;50.666;9.150;2023-05-10T06:13:29;13.60;99.90
41694;DHT22;27377;50.666;9.150;2023-05-10T06:16:00;13.60;99.90
41694;DHT22;27377;50.666;9.150;2023-05-10T06:18:26;13.60;99.90
41694;DHT22;27377;50.666;9.150;2023-05-10T06:20:55;13.60;99.90
41694;DHT22;27377;50.666;9.150;2023-05-10T06:23:20;13.60;99.90
41694;DHT22;27377;50.666;9.150;2023-05-10T06:25:47;13.60;99.90
41694;DHT22;27377;50.666;9.150;2023-05-10T06:28:15;13.60;99.90
41694;DHT22;27377;50.666;9.150;2023-05-10T06:30:41;13.60;99.90
41694;DHT22;27377;50.666;9.150;2023-05-10T06:33:06;13.60;99.90
41694;DHT22;27377;50.666;9.150;2023-05-10T06:35:32;13.60;99.90
41694;DHT22;27377;50.666;9.150;2023-05-10T06:38:01;13.60;99.90
41694;DHT22;27377;50.666;9.150;2023-05-10T06:40:27;13.60;99.90
41694;DHT22;27377;50.666;9.150;2023-05-10T06:42:52;13.60;99.90
41694;DHT22;27377;50.666;9.150;2023-05-10T06:45:20;13.60;99.90
41694;DHT22;27377;50.666;9.150;2023-05-10T06:47:46;13.60;99.90
41694;DHT22;27377;50.666;9.150;2023-05-10T06:50:11;13.70;99.90
41694;DHT22;27377;50.666;9.150;2023-05-10T06:52:37;13.60;99.90
41694;DHT22;27377;50.666;9.150;2023-05-10T06:55:06;13.60;99.90
41694;DHT22;27377;50.666;9.150;2023-05-10T06:57:32;13.70;99.90
41694;DHT22;27377;50.666;9.150;2023-05-10T06:59:58;13.70;99.90
41694;DHT22;27377;50.666;9.150;2023-05-10T07:02:25;13.70;99.90
41694;DHT22;27377;50.666;9.150;2023-05-10T07:04:50;13.70;99.90
41694;DHT22;27377;50.666;9.150;2023-05-10T07:07:17;13.60;99.90
41694;DHT22;27377;50.666;9.150;2023-05-10T07:09:42;13.60;99.90
41694;DHT22;27377;50.666;9.150;2023-05-10T07:12:09;13.70;99.90
41694;DHT22;27377;50.666;9.150;2023-05-10T07:14:35;13.70;99.90
41694;DHT22;27377;50.666;9.150;2023-05-10T07:17:00;13.70;99.90
41694;DHT22;27377;50.666;9.150;2023-05-10T07:19:26;13.70;99.90
41694;DHT22;27377;50.666;9.150;2023-05-10T07:21:54;13.70;99.90
41694;DHT22;27377;50.666;9.150;2023-05-10T07:24:20;13.70;99.90
41694;DHT22;27377;50.666;9.150;2023-05-10T07:26:46;13.70;99.90
41694;DHT22;27377;50.666;9.150;2023-05-10T07:29:11;13.80;99.90
41694;DHT22;27377;50.666;9.150;2023-05-10T07:31:39;13.80;99.90
41694;DHT22;27377;50.666;9.150;2023-05-10T07:34:07;13.80;99.90
41694;DHT22;27377;50.666;9.150;2023-05-10T07:36:32;13.80;99.90
41694;DHT22;27377;50.666;9.150;2023-05-10T07:39:01;13.80;99.90
41694;DHT22;27377;50.666;9.150;2023-05-10T07:41:26;13.80;99.90
41694;DHT22;27377;50.666;9.150;2023-05-10T07:43:52;13.80;99.90
41694;DHT22;27377;50.666;9.150;2023-05-10T07:46:18;13.80;99.90
41694;DHT22;27377;50.666;9.150;2023-05-10T07:48:46;13.80;99.90
41694;DHT22;27377;50.666;9.150;2023-05-10T07:51:12;13.70;99.90
41694;DHT22;27377;50.666;9.150;2023-05-10T07:53:38;13.80;99.90
41694;DHT22;27377;50.666;9.150;2023-05-10T07:56:39;13.70;99.90
41694;DHT22;27377;50.666;9.150;2023-05-10T07:59:18;13.80;99.90
41694;DHT22;27377;50.666;9.150;2023-05-10T08:01:44;13.80;99.90
41694;DHT22;27377;50.666;9.150;2023-05-10T08:04:10;13.80;99.90
41694;DHT22;27377;50.666;9.150;2023-05-10T08:06:36;13.80;99.90
41694;DHT22;27377;50.666;9.150;2023-05-10T08:09:02;13.80;99.90
41694;DHT22;27377;50.666;9.150;2023-05-10T08:11:28;13.80;99.90
41694;DHT22;27377;50.666;9.150;2023-05-10T08:13:53;13.90;99.90
41694;DHT22;27377;50.666;9.150;2023-05-10T08:16:19;13.90;99.90
41694;DHT22;27377;50.666;9.150;2023-05-10T08:18:46;13.90;99.90
41694;DHT22;27377;50.666;9.150;2023-05-10T08:21:12;13.90;99.90
41694;DHT22;27377;50.666;9.150;2023-05-10T08:23:38;13.90;99.90
41694;DHT22;27377;50.666;9.150;2023-05-10T08:26:04;14.00;99.90
41694;DHT22;27377;50.666;9.150;2023-05-10T08:28:29;14.00;99.90
41694;DHT22;27377;50.666;9.150;2023-05-10T08:30:55;14.00;99.90
41694;DHT22;27377;50.666;9.150;2023-05-10T08:33:21;14.10;99.90
41694;DHT22;27377;50.666;9.150;2023-05-10T08:35:47;14.10;99.90
41694;DHT22;27377;50.666;9.150;2023-05-10T08:38:12;14.10;99.90
41694;DHT22;27377;50.666;9.150;2023-05-10T08:40:41;14.20;99.90
41694;DHT22;27377;50.666;9.150;2023-05-10T08:43:11;14.20;99.90
41694;DHT22;27377;50.666;9.150;2023-05-10T08:45:39;14.20;99.90
41694;DHT22;27377;50.666;9.150;2023-05-10T08:48:07;14.30;99.90
41694;DHT22;27377;50.666;9.150;2023-05-10T08:50:35;14.30;99.90
41694;DHT22;27377;50.666;9.150;2023-05-10T08:53:05;14.30;99.90
41694;DHT22;27377;50.666;9.150;2023-05-10T08:55:32;14.30;99.90
41694;DHT22;27377;50.666;9.150;2023-05-10T08:57:59;14.30;99.90
41694;DHT22;27377;50.666;9.150;2023-05-10T09:00:25;14.30;99.90
41694;DHT22;27377;50.666;9.150;2023-05-10T09:02:51;14.40;99.90
41694;DHT22;27377;50.666;9.150;2023-05-10T09:05:17;14.40;99.90
41694;DHT22;27377;50.666;9.150;2023-05-10T09:07:43;14.30;99.90
41694;DHT22;27377;50.666;9.150;2023-05-10T09:10:09;14.30;99.90
41694;DHT22;27377;50.666;9.150;2023-05-10T09:12:36;14.40;99.90
41694;DHT22;27377;50.666;9.150;2023-05-10T09:15:01;14.40;99.90
41694;DHT22;27377;50.666;9.150;2023-05-10T09:17:29;14.40;99.90
41694;DHT22;27377;50.666;9.150;2023-05-10T09:20:03;14.40;99.90
41694;DHT22;27377;50.666;9.150;2023-05-10T09:22:30;14.40;99.90
41694;DHT22;27377;50.666;9.150;2023-05-10T09:25:14;14.50;99.90
41694;DHT22;27377;50.666;9.150;2023-05-10T09:27:41;14.50;99.90
41694;DHT22;27377;50.666;9.150;2023-05-10T09:30:08;14.60;99.90
41694;DHT22;27377;50.666;9.150;2023-05-10T09:32:45;14.50;99.90
41694;DHT22;27377;50.666;9.150;2023-05-10T09:35:13;14.60;99.90
41694;DHT22;27377;50.666;9.150;2023-05-10T09:37:39;14.60;99.90
41694;DHT22;27377;50.666;9.150;2023-05-10T09:40:15;14.60;99.90
41694;DHT22;27377;50.666;9.150;2023-05-10T09:43:00;14.60;99.90
41694;DHT22;27377;50.666;9.150;2023-05-10T09:45:27;14.70;99.90
41694;DHT22;27377;50.666;9.150;2023-05-10T09:47:54;14.70;99.90
41694;DHT22;27377;50.666;9.150;2023-05-10T09:50:20;14.80;99.90
41694;DHT22;27377;50.666;9.150;2023-05-10T09:52:56;14.80;99.90
41694;DHT22;27377;50.666;9.150;2023-05-10T09:58:05;14.80;99.90
41694;DHT22;27377;50.666;9.150;2023-05-10T10:00:37;14.80;99.90
41694;DHT22;27377;50.666;9.150;2023-05-10T10:03:03;14.80;99.90
41694;DHT22;27377;50.666;9.150;2023-05-10T10:05:34;14.80;99.90
41694;DHT22;27377;50.666;9.150;2023-05-10T10:08:04;14.80;99.90
41694;DHT22;27377;50.666;9.150;2023-05-10T10:10:31;14.90;99.90
41694;DHT22;27377;50.666;9.150;2023-05-10T10:12:59;14.80;99.90
41694;DHT22;27377;50.666;9.150;2023-05-10T10:15:25;14.90;99.90
41694;DHT22;27377;50.666;9.150;2023-05-10T10:17:52;14.90;99.90
41694;DHT22;27377;50.666;9.150;2023-05-10T10:20:20;14.90;99.90
41694;DHT22;27377;50.666;9.150;2023-05-10T10:22:46;15.00;99.90
41694;DHT22;27377;50.666;9.150;2023-05-10T10:25:15;14.90;99.90
41694;DHT22;27377;50.666;9.150;2023-05-10T10:33:01;14.90;99.90
41694;DHT22;27377;50.666;9.150;2023-05-10T10:35:33;14.90;99.90
41694;DHT22;27377;50.666;9.150;2023-05-10T10:38:00;14.90;99.90
41694;DHT22;27377;50.666;9.150;2023-05-10T10:40:27;14.90;99.90
41694;DHT22;27377;50.666;9.150;2023-05-10T10:42:54;14.90;99.90
41694;DHT22;27377;50.666;9.150;2023-05-10T10:45:21;14.90;99.90
41694;DHT22;27377;50.666;9.150;2023-05-10T10:47:48;14.90;99.90
41694;DHT22;27377;50.666;9.150;2023-05-10T10:50:13;14.90;99.90
41694;DHT22;27377;50.666;9.150;2023-05-10T10:52:42;14.90;99.90
41694;DHT22;27377;50.666;9.150;2023-05-10T10:55:17;14.90;99.90
41694;DHT22;27377;50.666;9.150;2023-05-10T10:57:48;15.00;99.90
41694;DHT22;27377;50.666;9.150;2023-05-10T11:00:28;15.00;99.90
41694;DHT22;27377;50.666;9.150;2023-05-10T11:03:11;14.90;99.90
41694;DHT22;27377;50.666;9.150;2023-05-10T11:05:47;14.90;99.90
41694;DHT22;27377;50.666;9.150;2023-05-10T11:08:19;14.90;99.90
41694;DHT22;27377;50.666;9.150;2023-05-10T11:13:37;15.00;99.90
41694;DHT22;27377;50.666;9.150;2023-05-10T11:16:16;15.00;99.90
41694;DHT22;27377;50.666;9.150;2023-05-10T11:21:28;15.10;99.90
41694;DHT22;27377;50.666;9.150;2023-05-10T11:23:55;15.10;99.90
41694;DHT22;27377;50.666;9.150;2023-05-10T11:26:32;15.10;99.90
41694;DHT22;27377;50.666;9.150;2023-05-10T11:28:59;15.10;99.90
41694;DHT22;27377;50.666;9.150;2023-05-10T11:31:26;15.20;99.90
41694;DHT22;27377;50.666;9.150;2023-05-10T11:33:57;15.20;99.90
41694;DHT22;27377;50.666;9.150;2023-05-10T11:36:28;15.30;99.90
41694;DHT22;27377;50.666;9.150;2023-05-10T11:38:55;15.30;99.90
41694;DHT22;27377;50.666;9.150;2023-05-10T11:41:22;15.30;99.90
41694;DHT22;27377;50.666;9.150;2023-05-10T11:43:50;15.30;99.90
41694;DHT22;27377;50.666;9.150;2023-05-10T11:46:17;15.30;99.90
41694;DHT22;27377;50.666;9.150;2023-05-10T11:48:43;15.30;99.90
41694;DHT22;27377;50.666;9.150;2023-05-10T11:51:10;15.40;99.90
41694;DHT22;27377;50.666;9.150;2023-05-10T11:53:36;15.40;99.90
41694;DHT22;27377;50.666;9.150;2023-05-10T11:56:09;15.30;99.90
41694;DHT22;27377;50.666;9.150;2023-05-10T11:58:36;15.30;99.90
41694;DHT22;27377;50.666;9.150;2023-05-10T12:01:03;15.40;99.90
41694;DHT22;27377;50.666;9.150;2023-05-10T12:03:29;15.40;99.90
41694;DHT22;27377;50.666;9.150;2023-05-10T12:05:56;15.40;99.90
41694;DHT22;27377;50.666;9.150;2023-05-10T12:08:26;15.40;99.90
41694;DHT22;27377;50.666;9.150;2023-05-10T12:10:53;15.40;99.90
41694;DHT22;27377;50.666;9.150;2023-05-10T12:13:20;15.40;99.90
41694;DHT22;27377;50.666;9.150;2023-05-10T12:15:46;15.40;99.90
41694;DHT22;27377;50.666;9.150;2023-05-10T12:18:13;15.40;99.90
41694;DHT22;27377;50.666;9.150;2023-05-10T12:20:40;15.40;99.90
41694;DHT22;27377;50.666;9.150;2023-05-10T12:23:07;15.40;99.90
41694;DHT22;27377;50.666;9.150;2023-05-10T12:25:34;15.40;99.90
41694;DHT22;27377;50.666;9.150;2023-05-10T12:28:02;15.40;99.90
41694;DHT22;27377;50.666;9.150;2023-05-10T12:30:30;15.50;99.90
41694;DHT22;27377;50.666;9.150;2023-05-10T12:33:09;15.50;99.90
41694;DHT22;27377;50.666;9.150;2023-05-10T12:35:46;15.50;99.90
41694;DHT22;27377;50.666;9.150;2023-05-10T12:38:35;15.50;99.90
41694;DHT22;27377;50.666;9.150;2023-05-10T12:41:07;15.50;99.90
41694;DHT22;27377;50.666;9.150;2023-05-10T12:43:33;15.40;99.90
41694;DHT22;27377;50.666;9.150;2023-05-10T12:46:05;15.40;99.90
41694;DHT22;27377;50.666;9.150;2023-05-10T12:48:31;15.40;99.90
41694;DHT22;27377;50.666;9.150;2023-05-10T12:50:57;15.40;99.90
41694;DHT22;27377;50.666;9.150;2023-05-10T12:53:22;15.40;99.90
41694;DHT22;27377;50.666;9.150;2023-05-10T12:55:48;15.30;99.90
41694;DHT22;27377;50.666;9.150;2023-05-10T12:58:13;15.30;99.90
41694;DHT22;27377;50.666;9.150;2023-05-10T13:00:39;15.30;99.90
41694;DHT22;27377;50.666;9.150;2023-05-10T13:03:05;15.30;99.90
41694;DHT22;27377;50.666;9.150;2023-05-10T13:05:34;15.30;99.90
41694;DHT22;27377;50.666;9.150;2023-05-10T13:08:00;15.20;99.90
41694;DHT22;27377;50.666;9.150;2023-05-10T13:10:28;15.20;99.90
41694;DHT22;27377;50.666;9.150;2023-05-10T13:12:53;15.10;99.90
41694;DHT22;27377;50.666;9.150;2023-05-10T13:15:19;15.10;99.90
41694;DHT22;27377;50.666;9.150;2023-05-10T13:17:44;15.00;99.90
41694;DHT22;27377;50.666;9.150;2023-05-10T13:20:10;15.00;99.90
41694;DHT22;27377;50.666;9.150;2023-05-10T13:22:36;15.00;99.90
41694;DHT22;27377;50.666;9.150;2023-05-10T13:25:02;15.00;99.90
41694;DHT22;27377;50.666;9.150;2023-05-10T13:27:27;15.00;99.90
41694;DHT22;27377;50.666;9.150;2023-05-10T13:29:53;14.90;99.90
41694;DHT22;27377;50.666;9.150;2023-05-10T13:32:20;14.90;99.90
41694;DHT22;27377;50.666;9.150;2023-05-10T13:34:45;14.90;99.90
41694;DHT22;27377;50.666;9.150;2023-05-10T13:37:11;14.80;99.90
41694;DHT22;27377;50.666;9.150;2023-05-10T13:39:36;14.80;99.90
41694;DHT22;27377;50.666;9.150;2023-05-10T13:42:03;14.80;99.90
41694;DHT22;27377;50.666;9.150;2023-05-10T13:44:28;14.80;99.90
41694;DHT22;27377;50.666;9.150;2023-05-10T13:46:54;14.80;99.90
41694;DHT22;27377;50.666;9.150;2023-05-10T13:49:20;14.80;99.90
41694;DHT22;27377;50.666;9.150;2023-05-10T13:51:47;14.80;99.90
41694;DHT22;27377;50.666;9.150;2023-05-10T13:54:12;14.80;99.90
41694;DHT22;27377;50.666;9.150;2023-05-10T13:56:38;14.80;99.90
41694;DHT22;27377;50.666;9.150;2023-05-10T13:59:04;14.70;99.90
41694;DHT22;27377;50.666;9.150;2023-05-10T14:01:29;14.80;99.90
41694;DHT22;27377;50.666;9.150;2023-05-10T14:03:55;14.70;99.90
41694;DHT22;27377;50.666;9.150;2023-05-10T14:06:20;14.70;99.90
41694;DHT22;27377;50.666;9.150;2023-05-10T14:08:46;14.70;99.90
41694;DHT22;27377;50.666;9.150;2023-05-10T14:11:12;14.70;99.90
41694;DHT22;27377;50.666;9.150;2023-05-10T14:13:38;14.70;99.90
41694;DHT22;27377;50.666;9.150;2023-05-10T14:16:04;14.80;99.90
41694;DHT22;27377;50.666;9.150;2023-05-10T14:18:29;14.80;99.90
41694;DHT22;27377;50.666;9.150;2023-05-10T14:20:55;14.80;99.90
41694;DHT22;27377;50.666;9.150;2023-05-10T14:23:22;14.80;99.90
41694;DHT22;27377;50.666;9.150;2023-05-10T14:25:51;14.80;99.90
41694;DHT22;27377;50.666;9.150;2023-05-10T14:28:17;14.80;99.90
41694;DHT22;27377;50.666;9.150;2023-05-10T14:30:44;14.80;99.90
41694;DHT22;27377;50.666;9.150;2023-05-10T14:33:10;14.80;99.90
41694;DHT22;27377;50.666;9.150;2023-05-10T14:35:35;14.80;99.90
41694;DHT22;27377;50.666;9.150;2023-05-10T14:38:02;14.80;99.90
41694;DHT22;27377;50.666;9.150;2023-05-10T14:40:28;14.90;99.90
41694;DHT22;27377;50.666;9.150;2023-05-10T14:42:54;14.90;99.90
41694;DHT22;27377;50.666;9.150;2023-05-10T14:45:20;14.90;99.90
41694;DHT22;27377;50.666;9.150;2023-05-10T14:47:46;14.90;99.90
41694;DHT22;27377;50.666;9.150;2023-05-10T14:50:12;15.00;99.90
41694;DHT22;27377;50.666;9.150;2023-05-10T14:52:37;15.00;99.90
41694;DHT22;27377;50.666;9.150;2023-05-10T14:55:03;15.00;99.90
41694;DHT22;27377;50.666;9.150;2023-05-10T14:57:28;15.10;99.90
41694;DHT22;27377;50.666;9.150;2023-05-10T14:59:55;15.10;99.90
41694;DHT22;27377;50.666;9.150;2023-05-10T15:02:21;15.10;99.90
41694;DHT22;27377;50.666;9.150;2023-05-10T15:04:47;15.10;99.90
41694;DHT22;27377;50.666;9.150;2023-05-10T15:07:13;15.10;99.90
41694;DHT22;27377;50.666;9.150;2023-05-10T15:09:40;15.10;99.90
41694;DHT22;27377;50.666;9.150;2023-05-10T15:12:06;15.10;99.90
41694;DHT22;27377;50.666;9.150;2023-05-10T15:14:31;15.10;99.90
41694;DHT22;27377;50.666;9.150;2023-05-10T15:16:58;15.10;99.90
41694;DHT22;27377;50.666;9.150;2023-05-10T15:19:24;15.20;99.90
41694;DHT22;27377;50.666;9.150;2023-05-10T15:21:49;15.20;99.90
41694;DHT22;27377;50.666;9.150;2023-05-10T15:24:15;15.10;99.90
41694;DHT22;27377;50.666;9.150;2023-05-10T15:26:40;15.10;99.90
41694;DHT22;27377;50.666;9.150;2023-05-10T15:29:06;15.20;99.90
41694;DHT22;27377;50.666;9.150;2023-05-10T15:31:32;15.20;99.90
41694;DHT22;27377;50.666;9.150;2023-05-10T15:34:00;15.20;99.90
41694;DHT22;27377;50.666;9.150;2023-05-10T15:36:26;15.20;99.90
41694;DHT22;27377;50.666;9.150;2023-05-10T15:38:52;15.20;99.90
41694;DHT22;27377;50.666;9.150;2023-05-10T15:41:18;15.30;99.90
41694;DHT22;27377;50.666;9.150;2023-05-10T15:43:43;15.30;99.90
41694;DHT22;27377;50.666;9.150;2023-05-10T15:46:09;15.30;99.90
41694;DHT22;27377;50.666;9.150;2023-05-10T15:48:34;15.30;99.90
41694;DHT22;27377;50.666;9.150;2023-05-10T15:51:00;15.30;99.90
41694;DHT22;27377;50.666;9.150;2023-05-10T15:53:25;15.30;99.90
41694;DHT22;27377;50.666;9.150;2023-05-10T15:55:51;15.30;99.90